Terminal Aerodrome Forecast
Issued by NWS

Home | Current Version | Previous Version | Graphics & Text | Print | Product List | Glossary On
Versions: 1 2 3 4 5 6 7 8 9 10 11 12 13 14 15 16 17 18
000
FTUS43 KIWX 172322
TAFSBN
TAF
KSBN 172322Z 1800/1824 17014G23KT P6SM VCSH OVC025 WS020/20040KT
     FM180400 19012KT 5SM -SHRA OVC010 WS020/21050KT
     FM180800 21008KT 3SM -SHRA BR OVC008
     FM181800 34018G26KT 3SM -SHRA BR OVC008=

USA.gov is the U.S. government's official web portal to all federal, state and local government web resources and services.